Time;durP1;ratioP1;P1;durP2;ratioP2;P2;SDS_P1;SDS_P2;PMS_P1;PMS_P2;Temp;Humidity;BMP_temperature;BMP_pressure;BME280_temperature;BME280_humidity;BME280_pressure;Samples;Min_cycle;Max_cycle;Signal;HPM_P1;HPM_P2
2021/12/13 00:00:41;;;;;;;47.70;42.58;;;;;21.60;101381.00;;;;2083089;28;20699;-61
2021/12/13 00:01:45;;;;;;;48.67;43.38;;;;;21.60;101384.00;;;;2093900;28;20228;-60
2021/12/13 00:03:10;;;;;;;47.97;42.97;;;;;21.60;101385.00;;;;2091231;28;20223;-60
2021/12/13 00:04:23;;;;;;;45.40;40.08;;;;;21.60;101389.00;;;;2099834;28;20698;-60
2021/12/13 00:05:32;;;;;;;45.42;40.42;;;;;21.60;101375.00;;;;2091896;28;20220;-59
2021/12/13 00:06:38;;;;;;;45.65;40.10;;;;;21.50;101386.00;;;;2094954;28;20774;-60
2021/12/13 00:07:42;;;;;;;44.15;39.35;;;;;21.60;101377.00;;;;2087286;28;20717;-60
2021/12/13 00:08:45;;;;;;;43.95;39.15;;;;;21.60;101367.00;;;;2076041;28;20264;-60
2021/12/13 00:09:49;;;;;;;44.92;40.05;;;;;21.60;101383.00;;;;2075611;28;20209;-60
2021/12/13 00:10:51;;;;;;;38.80;34.60;;;;;21.50;101380.00;;;;2082238;28;20264;-60
2021/12/13 00:11:55;;;;;;;42.22;36.25;;;;;21.50;101375.00;;;;2076210;28;20219;-60
2021/12/13 00:13:07;;;;;;;40.15;35.75;;;;;21.50;101377.00;;;;2091996;28;20807;-60
2021/12/13 00:14:16;;;;;;;40.22;35.60;;;;;21.50;101381.00;;;;2085189;28;20587;-61
2021/12/13 00:15:32;;;;;;;44.20;37.15;;;;;21.20;101383.00;;;;2087796;28;20758;-60
2021/12/13 00:16:34;;;;;;;42.65;35.58;;;;;21.10;101378.00;;;;2091517;28;20261;-59
2021/12/13 00:17:46;;;;;;;38.90;33.33;;;;;21.10;101383.00;;;;2084566;28;20260;-58
2021/12/13 00:18:47;;;;;;;36.60;32.55;;;;;21.20;101383.00;;;;2090499;28;20209;-58
2021/12/13 00:19:55;;;;;;;31.48;27.67;;;;;21.30;101381.00;;;;2100557;28;20211;-58
2021/12/13 00:21:07;;;;;;;30.23;25.60;;;;;21.40;101391.00;;;;2100347;28;20299;-58
2021/12/13 00:22:29;;;;;;;29.52;26.48;;;;;21.40;101389.00;;;;2091570;28;20318;-58
2021/12/13 00:23:33;;;;;;;26.63;23.80;;;;;21.40;101388.00;;;;2085393;28;20222;-58
2021/12/13 00:24:35;;;;;;;26.75;23.83;;;;;21.40;101392.00;;;;2100469;28;20655;-58
2021/12/13 00:25:35;;;;;;;24.15;21.65;;;;;21.40;101385.00;;;;2091465;28;20755;-58
2021/12/13 00:26:46;;;;;;;24.80;22.20;;;;;21.40;101387.00;;;;2074976;28;20214;-58
2021/12/13 00:27:57;;;;;;;23.80;21.35;;;;;21.40;101389.00;;;;2082096;28;20611;-58
2021/12/13 00:28:57;;;;;;;24.08;21.63;;;;;21.40;101380.00;;;;2091657;28;20217;-58
2021/12/13 00:30:25;;;;;;;22.93;20.50;;;;;21.40;101393.00;;;;2083439;28;20228;-58
2021/12/13 00:31:48;;;;;;;21.55;19.25;;;;;21.40;101388.00;;;;2095278;28;20234;-59
2021/12/13 00:33:21;;;;;;;21.73;19.40;;;;;21.40;101389.00;;;;2098283;28;20211;-59
2021/12/13 00:34:34;;;;;;;21.73;18.92;;;;;21.40;101387.00;;;;2090087;28;20300;-59
2021/12/13 00:36:13;;;;;;;19.80;17.70;;;;;21.40;101379.00;;;;2087379;28;20208;-59
2021/12/13 00:37:31;;;;;;;19.33;17.08;;;;;21.40;101387.00;;;;2089792;28;20209;-59
2021/12/13 00:38:36;;;;;;;20.15;18.08;;;;;21.40;101385.00;;;;2093979;28;20225;-59
2021/12/13 00:39:58;;;;;;;19.73;17.67;;;;;21.30;101388.00;;;;2082532;28;20689;-59
2021/12/13 00:41:04;;;;;;;19.67;17.45;;;;;21.40;101390.00;;;;2086789;28;20234;-59
2021/12/13 00:42:04;;;;;;;18.38;16.52;;;;;21.40;101375.00;;;;2100405;28;20220;-59
2021/12/13 00:43:11;;;;;;;19.23;17.33;;;;;21.40;101396.00;;;;2100431;28;20681;-59
2021/12/13 00:44:15;;;;;;;17.92;16.10;;;;;21.30;101388.00;;;;2096607;28;20329;-58
2021/12/13 00:45:18;;;;;;;18.10;16.10;;;;;21.40;101390.00;;;;2099699;28;20678;-59
2021/12/13 00:46:18;;;;;;;17.25;15.55;;;;;21.40;101386.00;;;;2099820;28;20218;-59
2021/12/13 00:47:22;;;;;;;16.80;15.20;;;;;21.40;101384.00;;;;2100063;28;20216;-59
2021/12/13 00:48:23;;;;;;;16.20;14.60;;;;;21.30;101387.00;;;;2099017;28;20222;-59
2021/12/13 00:49:27;;;;;;;16.00;14.40;;;;;21.40;101386.00;;;;2100256;28;20208;-59
2021/12/13 00:50:51;;;;;;;15.63;14.13;;;;;21.40;101382.00;;;;2091129;28;20525;-59
2021/12/13 00:51:52;;;;;;;15.10;13.52;;;;;21.40;101386.00;;;;2090696;28;20230;-59
2021/12/13 00:52:53;;;;;;;16.27;14.63;;;;;21.40;101396.00;;;;2099854;28;20700;-59
2021/12/13 00:53:56;;;;;;;14.53;13.03;;;;;21.40;101387.00;;;;2097651;28;20224;-59
2021/12/13 00:54:56;;;;;;;14.77;13.27;;;;;21.40;101395.00;;;;2091040;28;20224;-59
2021/12/13 00:55:56;;;;;;;15.40;13.80;;;;;21.40;101398.00;;;;2082953;28;20312;-59
2021/12/13 00:57:06;;;;;;;14.33;12.87;;;;;21.40;101395.00;;;;2090752;28;20216;-59
2021/12/13 00:58:07;;;;;;;14.85;13.25;;;;;21.40;101388.00;;;;2088506;28;20215;-59
2021/12/13 00:59:09;;;;;;;14.60;13.20;;;;;21.40;101396.00;;;;2099536;28;20221;-59
2021/12/13 01:00:30;;;;;;;14.82;13.38;;;;;21.40;101405.00;;;;2099669;28;20667;-59
2021/12/13 01:01:31;;;;;;;13.55;12.15;;;;;21.40;101399.00;;;;2096100;28;20233;-59
2021/12/13 01:02:44;;;;;;;13.00;11.80;;;;;21.40;101402.00;;;;2090415;28;20216;-59
2021/12/13 01:03:46;;;;;;;14.77;13.38;;;;;21.40;101400.00;;;;2092722;28;20213;-60
2021/12/13 01:05:04;;;;;;;14.77;12.82;;;;;21.30;101404.00;;;;2099769;28;20216;-60
2021/12/13 01:06:42;;;;;;;15.90;12.10;;;;;21.30;101408.00;;;;2100262;28;20211;-60
2021/12/13 01:08:03;;;;;;;13.85;12.45;;;;;21.40;101406.00;;;;2095841;28;20211;-59
2021/12/13 01:09:45;;;;;;;14.32;12.88;;;;;21.40;101411.00;;;;2099540;28;20223;-60
2021/12/13 01:11:10;;;;;;;13.95;12.45;;;;;21.40;101407.00;;;;2074028;28;20209;-60
2021/12/13 01:12:13;;;;;;;14.15;12.68;;;;;21.40;101406.00;;;;2097568;28;20896;-60
2021/12/13 01:13:36;;;;;;;14.30;12.80;;;;;21.40;101403.00;;;;2100218;28;20215;-59
2021/12/13 01:14:57;;;;;;;13.95;12.55;;;;;21.40;101405.00;;;;2097561;28;20304;-60
2021/12/13 01:16:17;;;;;;;14.57;13.07;;;;;21.40;101408.00;;;;2096929;28;20204;-60
2021/12/13 01:17:41;;;;;;;13.48;11.52;;;;;21.40;101407.00;;;;2099864;28;20570;-60
2021/12/13 01:20:07;;;;;;;12.88;11.60;;;;;21.40;101415.00;;;;2089166;28;20698;-60
2021/12/13 01:21:31;;;;;;;12.52;11.25;;;;;21.40;101411.00;;;;2094484;28;20220;-60
2021/12/13 01:23:52;;;;;;;13.13;11.40;;;;;21.30;101407.00;;;;2098020;28;20290;-60
2021/12/13 01:26:13;;;;;;;12.77;11.48;;;;;21.30;101415.00;;;;2091480;28;20598;-60
2021/12/13 01:27:13;;;;;;;12.27;10.80;;;;;21.30;101414.00;;;;2085146;28;20240;-60
2021/12/13 01:28:27;;;;;;;12.23;11.03;;;;;21.30;101418.00;;;;2093343;28;20260;-60
2021/12/13 01:29:27;;;;;;;12.23;11.02;;;;;21.30;101415.00;;;;2096984;28;20207;-60
2021/12/13 01:30:37;;;;;;;12.30;11.13;;;;;21.30;101420.00;;;;2099828;28;20230;-60
2021/12/13 01:31:44;;;;;;;12.27;10.98;;;;;21.30;101413.00;;;;2100140;28;20204;-59
2021/12/13 01:32:47;;;;;;;12.68;10.88;;;;;21.30;101415.00;;;;2096617;28;21371;-60
2021/12/13 01:33:47;;;;;;;11.90;10.75;;;;;21.20;101416.00;;;;2099793;28;20601;-60
2021/12/13 01:34:48;;;;;;;11.47;10.37;;;;;21.30;101421.00;;;;2091289;28;20216;-60
2021/12/13 01:35:50;;;;;;;11.30;10.20;;;;;21.30;101425.00;;;;2082961;28;20213;-60
2021/12/13 01:37:02;;;;;;;13.45;11.15;;;;;21.30;101412.00;;;;2091283;28;20221;-59
2021/12/13 01:38:14;;;;;;;11.77;10.65;;;;;21.30;101424.00;;;;2095729;28;20215;-60
2021/12/13 01:39:25;;;;;;;12.63;10.43;;;;;21.20;101423.00;;;;2100176;28;20215;-60
2021/12/13 01:40:27;;;;;;;11.77;10.52;;;;;21.20;101423.00;;;;2095867;28;20883;-60
2021/12/13 01:41:30;;;;;;;11.10;10.00;;;;;21.20;101433.00;;;;2100040;28;20216;-60
2021/12/13 01:42:30;;;;;;;11.57;10.40;;;;;21.20;101431.00;;;;2100171;28;20211;-60
2021/12/13 01:43:31;;;;;;;11.40;10.23;;;;;21.20;101428.00;;;;2099992;28;20752;-60
2021/12/13 01:44:36;;;;;;;10.60;9.60;;;;;21.20;101423.00;;;;2100140;28;20263;-60
2021/12/13 01:45:37;;;;;;;11.57;10.40;;;;;21.20;101430.00;;;;2100165;28;20793;-60
2021/12/13 01:46:40;;;;;;;10.47;9.47;;;;;21.20;101424.00;;;;2100105;28;20212;-59
2021/12/13 01:47:43;;;;;;;10.63;9.52;;;;;21.20;101424.00;;;;2100469;28;20446;-60
2021/12/13 01:48:44;;;;;;;10.80;9.60;;;;;21.20;101434.00;;;;2091540;28;20220;-60
2021/12/13 01:49:48;;;;;;;10.40;9.40;;;;;21.20;101438.00;;;;2091822;28;20219;-60
2021/12/13 01:51:04;;;;;;;10.35;9.25;;;;;21.20;101424.00;;;;2100110;28;20294;-60
2021/12/13 01:52:32;;;;;;;10.25;9.25;;;;;21.20;101434.00;;;;2096959;28;20219;-60
2021/12/13 01:53:37;;;;;;;10.32;9.23;;;;;21.10;101429.00;;;;2096763;28;20718;-60
2021/12/13 01:54:39;;;;;;;9.25;8.45;;;;;21.20;101436.00;;;;2099989;28;20218;-60
2021/12/13 01:55:42;;;;;;;10.30;9.20;;;;;21.20;101422.00;;;;2100163;28;20210;-59
2021/12/13 01:58:57;;;;;;;9.02;8.13;;;;;21.10;101436.00;;;;2090473;28;20586;-60
2021/12/13 02:02:11;;;;;;;8.05;7.35;;;;;21.10;101438.00;;;;2100126;28;20298;-60
2021/12/13 02:03:11;;;;;;;8.93;7.97;;;;;21.10;101446.00;;;;2088745;28;21270;-60
2021/12/13 02:04:14;;;;;;;8.70;7.80;;;;;21.10;101441.00;;;;2092574;28;20283;-59
2021/12/13 02:05:32;;;;;;;9.00;8.10;;;;;21.10;101442.00;;;;2081960;28;20259;-59
2021/12/13 02:06:36;;;;;;;8.60;7.80;;;;;21.10;101445.00;;;;2085956;28;20215;-60
2021/12/13 02:07:43;;;;;;;8.55;7.35;;;;;21.10;101439.00;;;;2100068;28;20234;-60
2021/12/13 02:08:43;;;;;;;8.57;7.75;;;;;21.20;101437.00;;;;2100048;28;20247;-60
2021/12/13 02:09:44;;;;;;;8.73;7.93;;;;;21.20;101444.00;;;;2083126;28;20576;-60
2021/12/13 02:10:49;;;;;;;8.33;7.53;;;;;21.10;101445.00;;;;2083588;28;20214;-60
2021/12/13 02:11:52;;;;;;;8.18;7.40;;;;;21.10;101440.00;;;;2101939;28;20462;-59
2021/12/13 02:12:57;;;;;;;7.88;7.18;;;;;21.10;101448.00;;;;2101863;28;20212;-59
2021/12/13 02:14:10;;;;;;;8.43;7.63;;;;;21.10;101447.00;;;;2101584;28;20874;-60
2021/12/13 02:17:33;;;;;;;8.30;7.45;;;;;21.10;101438.00;;;;2097519;28;20223;-60
2021/12/13 02:18:02;;;;;;;7.95;7.15;;;;;21.10;101436.00;;;;2083550;28;20208;-60
2021/12/13 02:19:03;;;;;;;7.20;6.50;;;;;21.00;101438.00;;;;2101539;28;20203;-60
2021/12/13 02:20:08;;;;;;;7.43;6.63;;;;;21.00;101433.00;;;;2100313;28;20203;-59
2021/12/13 02:21:18;;;;;;;8.32;7.43;;;;;21.10;101435.00;;;;2101369;28;20239;-60
2021/12/13 02:22:29;;;;;;;7.18;6.47;;;;;21.10;101440.00;;;;2098270;28;20238;-60
2021/12/13 02:23:30;;;;;;;7.60;6.90;;;;;21.10;101434.00;;;;2092233;28;20213;-60
2021/12/13 02:24:31;;;;;;;7.03;6.40;;;;;21.10;101440.00;;;;2092554;28;20258;-60
2021/12/13 02:25:34;;;;;;;6.27;5.67;;;;;21.00;101441.00;;;;2092581;28;20213;-60
2021/12/13 02:26:36;;;;;;;7.22;6.53;;;;;21.00;101435.00;;;;2089088;28;20215;-60
2021/12/13 02:27:38;;;;;;;7.05;6.40;;;;;21.00;101438.00;;;;2101444;28;20213;-60
2021/12/13 02:28:41;;;;;;;8.95;7.05;;;;;21.00;101433.00;;;;2101494;28;20735;-60
2021/12/13 02:29:43;;;;;;;6.80;6.20;;;;;21.00;101439.00;;;;2092346;28;20254;-60
2021/12/13 02:30:48;;;;;;;6.00;5.40;;;;;21.00;101445.00;;;;2092325;28;20216;-59
2021/12/13 02:31:48;;;;;;;6.43;5.88;;;;;21.00;101443.00;;;;2101449;28;20220;-60
2021/12/13 02:32:48;;;;;;;6.37;5.77;;;;;21.00;101438.00;;;;2101741;28;20323;-60
2021/12/13 02:33:54;;;;;;;6.37;5.73;;;;;21.00;101432.00;;;;2100969;28;20362;-60
2021/12/13 02:34:56;;;;;;;7.78;6.57;;;;;21.00;101434.00;;;;2101769;28;20219;-60
2021/12/13 02:36:00;;;;;;;6.30;5.70;;;;;21.00;101441.00;;;;2101017;28;20212;-59
2021/12/13 02:37:00;;;;;;;6.65;6.05;;;;;21.00;101438.00;;;;2101169;28;20211;-60
2021/12/13 02:38:01;;;;;;;6.13;5.53;;;;;21.00;101438.00;;;;2101697;28;20212;-60
2021/12/13 02:39:25;;;;;;;6.97;6.33;;;;;21.00;101439.00;;;;2092760;28;20215;-60
2021/12/13 02:40:26;;;;;;;7.65;6.00;;;;;21.00;101439.00;;;;2095060;28;20302;-60
2021/12/13 02:41:29;;;;;;;7.47;6.47;;;;;21.00;101439.00;;;;2100979;28;20270;-60
2021/12/13 02:42:29;;;;;;;6.13;5.50;;;;;21.00;101440.00;;;;2101458;28;20442;-60
2021/12/13 02:43:32;;;;;;;7.43;6.03;;;;;21.00;101439.00;;;;2100538;28;20758;-60
2021/12/13 02:44:38;;;;;;;6.50;5.90;;;;;21.00;101438.00;;;;2101566;28;20291;-59
2021/12/13 02:45:43;;;;;;;6.55;5.95;;;;;21.00;101433.00;;;;2092801;28;20220;-60
2021/12/13 02:46:44;;;;;;;5.97;5.40;;;;;21.00;101437.00;;;;2093869;28;20236;-60
2021/12/13 02:47:52;;;;;;;7.40;6.70;;;;;21.00;101438.00;;;;2101371;28;20299;-60
2021/12/13 02:48:55;;;;;;;5.72;5.22;;;;;21.00;101433.00;;;;2101452;28;20207;-60
2021/12/13 02:49:56;;;;;;;6.03;5.43;;;;;21.00;101431.00;;;;2101313;28;20215;-59
2021/12/13 02:51:02;;;;;;;5.90;5.40;;;;;21.00;101440.00;;;;2092199;28;20649;-60
2021/12/13 02:52:05;;;;;;;6.13;5.53;;;;;21.00;101436.00;;;;2093090;28;20208;-60
2021/12/13 02:53:06;;;;;;;5.47;5.00;;;;;21.00;101436.00;;;;2101564;28;20225;-59
2021/12/13 02:54:14;;;;;;;5.80;5.30;;;;;21.00;101437.00;;;;2101436;28;20211;-60
2021/12/13 02:55:20;;;;;;;5.55;5.00;;;;;21.00;101436.00;;;;2101617;28;20203;-60
2021/12/13 02:56:25;;;;;;;6.00;5.40;;;;;21.00;101434.00;;;;2101656;28;20211;-59
2021/12/13 02:57:33;;;;;;;6.20;5.65;;;;;21.00;101441.00;;;;2096553;28;20223;-60
2021/12/13 02:58:36;;;;;;;4.95;4.55;;;;;21.00;101440.00;;;;2100918;28;20219;-60
2021/12/13 02:59:39;;;;;;;5.60;5.10;;;;;20.90;101437.00;;;;2101259;28;20333;-60
2021/12/13 03:00:49;;;;;;;5.95;5.45;;;;;20.90;101438.00;;;;2101048;28;20571;-60
2021/12/13 03:02:09;;;;;;;5.63;4.97;;;;;21.00;101446.00;;;;2098465;28;20223;-60
2021/12/13 03:03:12;;;;;;;4.82;4.28;;;;;21.00;101449.00;;;;2092995;28;20214;-60
2021/12/13 03:04:15;;;;;;;5.03;4.53;;;;;21.00;101443.00;;;;2102735;28;20574;-60
2021/12/13 03:05:20;;;;;;;5.93;5.43;;;;;21.00;101444.00;;;;2101522;28;20212;-60
2021/12/13 03:06:23;;;;;;;9.05;5.28;;;;;20.90;101442.00;;;;2101665;28;20298;-60
2021/12/13 03:07:35;;;;;;;5.82;5.18;;;;;20.90;101440.00;;;;2101398;28;20625;-60
2021/12/13 03:08:50;;;;;;;5.13;4.53;;;;;20.90;101452.00;;;;2098246;28;20222;-60
2021/12/13 03:09:52;;;;;;;5.45;4.95;;;;;20.90;101446.00;;;;2097165;28;20226;-60
2021/12/13 03:10:59;;;;;;;5.00;4.60;;;;;20.90;101446.00;;;;2100900;28;20223;-60
2021/12/13 03:12:01;;;;;;;5.00;4.50;;;;;20.90;101446.00;;;;2101147;28;20264;-60
2021/12/13 03:13:01;;;;;;;4.68;4.28;;;;;20.90;101448.00;;;;2101136;28;20714;-60
2021/12/13 03:14:09;;;;;;;5.67;4.70;;;;;20.90;101442.00;;;;2092114;28;20231;-60
2021/12/13 03:15:12;;;;;;;4.57;4.18;;;;;20.90;101451.00;;;;2089212;28;20224;-60
2021/12/13 03:16:16;;;;;;;5.22;4.82;;;;;20.90;101454.00;;;;2101143;28;20226;-60
2021/12/13 03:17:19;;;;;;;5.25;4.75;;;;;20.90;101455.00;;;;2101071;28;20211;-60
2021/12/13 03:18:33;;;;;;;5.10;4.60;;;;;20.90;101458.00;;;;2101021;28;20235;-59
2021/12/13 03:19:47;;;;;;;5.30;4.80;;;;;20.90;101455.00;;;;2097915;28;20691;-60
2021/12/13 03:21:00;;;;;;;4.53;4.13;;;;;20.90;101458.00;;;;2091759;28;20699;-60
2021/12/13 03:22:06;;;;;;;4.80;4.40;;;;;20.90;101451.00;;;;2090672;28;20220;-60
2021/12/13 03:23:36;;;;;;;4.00;3.70;;;;;20.90;101456.00;;;;2100319;28;20219;-60
2021/12/13 03:24:45;;;;;;;5.55;4.40;;;;;20.90;101460.00;;;;2090668;28;20241;-60
2021/12/13 03:25:45;;;;;;;4.72;4.32;;;;;20.90;101452.00;;;;2081152;28;20209;-60
2021/12/13 03:27:04;;;;;;;4.90;4.40;;;;;20.90;101455.00;;;;2092064;28;20707;-60
2021/12/13 03:28:16;;;;;;;4.68;4.18;;;;;20.90;101454.00;;;;2100987;28;20713;-60
2021/12/13 03:29:26;;;;;;;4.70;4.30;;;;;20.90;101456.00;;;;2098472;28;20235;-60
2021/12/13 03:30:33;;;;;;;4.20;3.90;;;;;20.90;101463.00;;;;2091897;28;20630;-60
2021/12/13 03:31:46;;;;;;;4.35;3.95;;;;;20.90;101466.00;;;;2081398;28;20213;-60
2021/12/13 03:32:56;;;;;;;4.75;4.35;;;;;20.90;101461.00;;;;2093743;28;20211;-60
2021/12/13 03:34:04;;;;;;;4.38;3.97;;;;;20.80;101456.00;;;;2097288;28;20257;-60
2021/12/13 03:35:11;;;;;;;5.05;4.55;;;;;20.90;101451.00;;;;2100491;28;20261;-60
2021/12/13 03:36:14;;;;;;;4.20;3.80;;;;;20.90;101466.00;;;;2100361;28;20962;-60
2021/12/13 03:37:20;;;;;;;4.40;4.00;;;;;20.90;101455.00;;;;2100890;28;20653;-60
2021/12/13 03:38:26;;;;;;;4.13;3.83;;;;;20.80;101454.00;;;;2101177;28;20220;-60
2021/12/13 03:39:36;;;;;;;4.00;3.70;;;;;20.90;101454.00;;;;2101229;28;20299;-59
2021/12/13 03:40:36;;;;;;;4.10;3.80;;;;;20.80;101451.00;;;;2100957;28;20215;-60
2021/12/13 03:41:40;;;;;;;4.00;3.53;;;;;20.80;101459.00;;;;2100962;28;20261;-60
2021/12/13 03:42:44;;;;;;;4.10;3.80;;;;;20.80;101457.00;;;;2100278;28;20231;-60
2021/12/13 03:43:46;;;;;;;3.83;3.53;;;;;20.80;101454.00;;;;2092048;28;20204;-60
2021/12/13 03:44:48;;;;;;;4.20;3.80;;;;;20.80;101455.00;;;;2083843;28;21206;-60
2021/12/13 03:45:50;;;;;;;4.00;3.70;;;;;20.80;101453.00;;;;2084076;28;20217;-60
2021/12/13 03:46:53;;;;;;;4.75;3.70;;;;;20.80;101454.00;;;;2092425;28;20219;-60
2021/12/13 03:47:56;;;;;;;3.63;3.33;;;;;20.80;101456.00;;;;2101163;28;20227;-60
2021/12/13 03:48:56;;;;;;;4.20;3.50;;;;;20.80;101460.00;;;;2101183;28;20703;-59
2021/12/13 03:49:58;;;;;;;3.20;3.00;;;;;20.90;101464.00;;;;2101250;28;20204;-60
2021/12/13 03:51:03;;;;;;;3.95;3.60;;;;;20.80;101459.00;;;;2091963;28;20227;-60
2021/12/13 03:52:03;;;;;;;4.20;3.80;;;;;20.80;101461.00;;;;2084703;28;20704;-60
2021/12/13 03:53:15;;;;;;;4.23;3.83;;;;;20.80;101461.00;;;;2092561;28;20228;-59
2021/12/13 03:54:16;;;;;;;3.70;3.40;;;;;20.80;101453.00;;;;2097562;28;20231;-60
2021/12/13 03:55:18;;;;;;;3.80;3.50;;;;;20.80;101461.00;;;;2100213;28;20219;-60
2021/12/13 03:56:30;;;;;;;3.10;2.80;;;;;20.80;101451.00;;;;2091561;28;20217;-60
2021/12/13 03:57:30;;;;;;;3.70;3.40;;;;;20.80;101456.00;;;;2089185;28;20308;-60
2021/12/13 03:58:34;;;;;;;3.33;3.03;;;;;20.80;101444.00;;;;2100598;28;20618;-59
2021/12/13 03:59:36;;;;;;;3.47;3.08;;;;;20.80;101454.00;;;;2100563;28;20211;-60
2021/12/13 04:00:42;;;;;;;3.40;3.10;;;;;20.80;101449.00;;;;2091156;28;20235;-60
2021/12/13 04:01:54;;;;;;;3.58;3.28;;;;;20.80;101460.00;;;;2091985;28;20270;-59
2021/12/13 04:02:57;;;;;;;4.40;3.20;;;;;20.80;101457.00;;;;2097755;28;20238;-59
2021/12/13 04:03:59;;;;;;;3.35;3.05;;;;;20.80;101457.00;;;;2091315;28;20273;-59
2021/12/13 04:05:02;;;;;;;3.45;3.15;;;;;20.80;101469.00;;;;2091553;28;20217;-59
2021/12/13 04:06:03;;;;;;;3.35;3.05;;;;;20.80;101464.00;;;;2100487;28;20216;-60
2021/12/13 04:07:16;;;;;;;3.60;3.20;;;;;20.80;101460.00;;;;2100374;28;20212;-60
2021/12/13 04:08:17;;;;;;;4.55;3.35;;;;;20.80;101462.00;;;;2099273;28;20224;-59
2021/12/13 04:09:17;;;;;;;2.60;2.40;;;;;20.80;101465.00;;;;2100383;28;20230;-59
2021/12/13 04:10:22;;;;;;;2.87;2.67;;;;;20.80;101457.00;;;;2100293;28;20212;-60
2021/12/13 04:11:23;;;;;;;3.78;3.47;;;;;20.80;101462.00;;;;2100322;28;20212;-60
2021/12/13 04:12:32;;;;;;;3.40;3.10;;;;;20.80;101463.00;;;;2091404;28;20212;-60
2021/12/13 04:13:47;;;;;;;3.38;3.08;;;;;20.80;101460.00;;;;2093087;28;20336;-60
2021/12/13 04:14:53;;;;;;;3.35;3.05;;;;;20.70;101448.00;;;;2083852;28;20219;-59
2021/12/13 04:16:09;;;;;;;3.22;2.92;;;;;20.80;101449.00;;;;2091194;28;20303;-60
2021/12/13 04:19:09;;;;;;;3.08;2.70;;;;;20.70;101458.00;;;;2065712;28;20219;-60
2021/12/13 04:20:20;;;;;;;2.88;2.67;;;;;20.70;101453.00;;;;2091931;28;20219;-59
2021/12/13 04:21:22;;;;;;;2.85;2.65;;;;;20.70;101462.00;;;;2099959;28;20220;-60
2021/12/13 04:22:29;;;;;;;2.92;2.72;;;;;20.70;101464.00;;;;2100280;28;20212;-59
2021/12/13 04:23:29;;;;;;;3.10;2.80;;;;;20.70;101459.00;;;;2097120;28;20211;-59
2021/12/13 04:24:34;;;;;;;2.90;2.70;;;;;20.70;101460.00;;;;2100420;28;20207;-59
2021/12/13 04:25:36;;;;;;;2.50;2.30;;;;;20.70;101458.00;;;;2100854;28;20223;-59
2021/12/13 04:26:42;;;;;;;2.63;2.42;;;;;20.80;101462.00;;;;2100699;28;20243;-59
2021/12/13 04:27:54;;;;;;;2.90;2.70;;;;;20.70;101460.00;;;;2100800;28;20794;-59
2021/12/13 04:28:56;;;;;;;2.83;2.63;;;;;20.70;101461.00;;;;2098243;28;20246;-59
2021/12/13 04:29:59;;;;;;;3.20;2.90;;;;;20.70;101460.00;;;;2100694;28;20215;-59
2021/12/13 04:31:03;;;;;;;2.33;2.15;;;;;20.70;101460.00;;;;2100470;28;20208;-59
2021/12/13 04:32:19;;;;;;;2.75;2.55;;;;;20.70;101470.00;;;;2100488;28;20212;-59
2021/12/13 04:33:26;;;;;;;2.80;2.55;;;;;20.70;101467.00;;;;2099664;28;20212;-60
2021/12/13 04:34:27;;;;;;;4.22;2.55;;;;;20.70;101466.00;;;;2099635;28;20211;-59
2021/12/13 04:35:27;;;;;;;3.10;2.80;;;;;20.70;101464.00;;;;2096022;28;20302;-59
2021/12/13 04:36:40;;;;;;;2.60;2.37;;;;;20.70;101463.00;;;;2099920;28;20214;-59
2021/12/13 04:37:50;;;;;;;2.70;2.40;;;;;20.70;101468.00;;;;2100060;28;20215;-57
2021/12/13 04:38:52;;;;;;;3.03;2.80;;;;;20.70;101458.00;;;;2096017;28;20952;-60
2021/12/13 04:39:57;;;;;;;2.60;2.22;;;;;20.70;101460.00;;;;2100626;28;20218;-59
2021/12/13 04:40:57;;;;;;;2.63;2.42;;;;;20.70;101470.00;;;;2100221;28;20229;-60
2021/12/13 04:42:03;;;;;;;2.70;2.50;;;;;20.70;101473.00;;;;2100520;28;20219;-60
2021/12/13 04:43:07;;;;;;;4.35;2.20;;;;;20.70;101476.00;;;;2097736;28;20220;-59
2021/12/13 04:44:17;;;;;;;2.50;2.30;;;;;20.70;101468.00;;;;2096721;28;20273;-60
2021/12/13 04:45:20;;;;;;;2.97;2.78;;;;;20.70;101472.00;;;;2091150;28;20204;-60
2021/12/13 04:46:20;;;;;;;3.20;2.53;;;;;20.70;101476.00;;;;2091717;28;20209;-60
2021/12/13 04:47:33;;;;;;;3.17;2.90;;;;;20.70;101471.00;;;;2091028;28;20299;-60
2021/12/13 04:48:34;;;;;;;2.90;2.70;;;;;20.70;101472.00;;;;2082036;28;20204;-59
2021/12/13 04:49:35;;;;;;;2.93;2.70;;;;;20.60;101469.00;;;;2092879;28;20208;-60
2021/12/13 04:50:50;;;;;;;2.60;2.40;;;;;20.70;101470.00;;;;2100051;28;20207;-60
2021/12/13 04:51:58;;;;;;;2.78;2.58;;;;;20.70;101469.00;;;;2096313;28;20277;-61
2021/12/13 04:52:58;;;;;;;3.25;2.50;;;;;20.70;101470.00;;;;2100429;28;20211;-59
2021/12/13 04:53:59;;;;;;;2.63;2.43;;;;;20.70;101464.00;;;;2100152;28;20207;-59
2021/12/13 04:54:59;;;;;;;2.17;2.05;;;;;20.70;101471.00;;;;2091322;28;20217;-60
2021/12/13 04:56:01;;;;;;;2.60;2.40;;;;;20.70;101478.00;;;;2091656;28;21215;-60
2021/12/13 04:57:02;;;;;;;2.42;2.20;;;;;20.70;101471.00;;;;2100266;28;20220;-58
2021/12/13 04:58:05;;;;;;;2.90;2.70;;;;;20.70;101478.00;;;;2100571;28;20586;-60
2021/12/13 04:59:06;;;;;;;2.20;2.00;;;;;20.70;101468.00;;;;2100777;28;20217;-59
2021/12/13 05:00:11;;;;;;;2.90;2.70;;;;;20.70;101472.00;;;;2100756;28;20208;-60
2021/12/13 05:01:12;;;;;;;2.40;2.17;;;;;20.70;101472.00;;;;2100295;28;20458;-60
2021/12/13 05:02:12;;;;;;;2.20;2.00;;;;;20.70;101469.00;;;;2100658;28;20219;-59
2021/12/13 05:03:14;;;;;;;2.50;2.30;;;;;20.70;101470.00;;;;2100852;28;20250;-59
2021/12/13 05:04:15;;;;;;;2.60;2.22;;;;;20.70;101473.00;;;;2100751;28;20211;-60
2021/12/13 05:05:15;;;;;;;2.50;2.30;;;;;20.70;101475.00;;;;2100292;28;20238;-59
2021/12/13 05:06:21;;;;;;;2.90;2.60;;;;;20.60;101471.00;;;;2100340;28;20697;-60
2021/12/13 05:07:21;;;;;;;2.75;2.55;;;;;20.60;101481.00;;;;2090770;28;20338;-60
2021/12/13 05:08:22;;;;;;;3.00;2.37;;;;;20.60;101479.00;;;;2073430;28;20695;-60
2021/12/13 05:09:22;;;;;;;3.13;2.17;;;;;20.60;101476.00;;;;2082738;28;20583;-60
2021/12/13 05:10:26;;;;;;;2.40;2.20;;;;;20.60;101481.00;;;;2099679;28;20223;-60
2021/12/13 05:11:33;;;;;;;2.45;2.25;;;;;20.60;101479.00;;;;2098730;28;20306;-60
2021/12/13 05:12:33;;;;;;;2.75;2.55;;;;;20.60;101480.00;;;;2087501;28;20216;-59
2021/12/13 05:13:45;;;;;;;2.67;2.30;;;;;20.60;101471.00;;;;2091154;28;20285;-59
2021/12/13 05:14:47;;;;;;;3.63;2.60;;;;;20.60;101477.00;;;;2091367;28;20604;-60
2021/12/13 05:16:11;;;;;;;2.72;2.53;;;;;20.60;101473.00;;;;2092345;28;20632;-59
2021/12/13 05:17:15;;;;;;;2.33;2.13;;;;;20.60;101480.00;;;;2099182;28;20668;-59
2021/12/13 05:18:17;;;;;;;2.80;2.60;;;;;20.60;101470.00;;;;2100558;28;20212;-60
2021/12/13 05:19:27;;;;;;;2.85;2.47;;;;;20.60;101474.00;;;;2100671;28;20292;-60
2021/12/13 05:20:37;;;;;;;2.55;2.35;;;;;20.60;101477.00;;;;2100132;28;20575;-59
2021/12/13 05:21:43;;;;;;;2.63;2.42;;;;;20.60;101473.00;;;;2100018;28;20212;-60
2021/12/13 05:22:49;;;;;;;2.63;2.20;;;;;20.60;101472.00;;;;2100366;28;20299;-60
2021/12/13 05:23:58;;;;;;;3.10;2.80;;;;;20.60;101473.00;;;;2100340;28;20630;-60
2021/12/13 05:25:00;;;;;;;2.17;2.00;;;;;20.60;101465.00;;;;2100268;28;20204;-60
2021/12/13 05:26:05;;;;;;;3.95;2.70;;;;;20.60;101469.00;;;;2100657;28;20257;-60
2021/12/13 05:27:08;;;;;;;4.38;2.38;;;;;20.60;101468.00;;;;2100557;28;20560;-59
2021/12/13 05:28:19;;;;;;;3.30;2.70;;;;;20.60;101469.00;;;;2100943;28;20648;-59
2021/12/13 05:29:36;;;;;;;2.55;2.35;;;;;20.60;101465.00;;;;2096599;28;20237;-59
2021/12/13 05:30:48;;;;;;;2.63;2.42;;;;;20.60;101473.00;;;;2090884;28;20225;-60
2021/12/13 05:31:53;;;;;;;2.63;2.40;;;;;20.60;101468.00;;;;2089564;28;20707;-60
2021/12/13 05:32:57;;;;;;;2.85;2.50;;;;;20.60;101470.00;;;;2091143;28;20208;-61
2021/12/13 05:34:04;;;;;;;2.65;2.28;;;;;20.60;101473.00;;;;2091673;28;20213;-59
2021/12/13 05:35:14;;;;;;;2.33;2.13;;;;;20.60;101476.00;;;;2100059;28;20220;-59
2021/12/13 05:36:26;;;;;;;3.40;2.22;;;;;20.60;101469.00;;;;2100464;28;20228;-59
2021/12/13 05:37:37;;;;;;;2.60;2.40;;;;;20.60;101470.00;;;;2091212;28;20219;-59
2021/12/13 05:38:42;;;;;;;2.80;2.30;;;;;20.60;101474.00;;;;2082156;28;20215;-59
2021/12/13 05:40:00;;;;;;;3.40;2.60;;;;;20.60;101479.00;;;;2093228;28;20231;-59